sensor_id;sensor_type;location;lat;lon;timestamp;temperature;humidity
25504;DHT22;13410;52.114;5.718;2023-11-19T00:02:20;17.30;99.90
25504;DHT22;13410;52.114;5.718;2023-11-19T00:04:46;17.20;99.90
25504;DHT22;13410;52.114;5.718;2023-11-19T00:07:11;17.30;99.90
25504;DHT22;13410;52.114;5.718;2023-11-19T00:09:39;17.30;99.90
25504;DHT22;13410;52.114;5.718;2023-11-19T00:12:06;17.20;99.90
25504;DHT22;13410;52.114;5.718;2023-11-19T00:14:33;17.00;99.90
25504;DHT22;13410;52.114;5.718;2023-11-19T00:16:59;17.00;99.90
25504;DHT22;13410;52.114;5.718;2023-11-19T00:19:25;17.20;99.90
25504;DHT22;13410;52.114;5.718;2023-11-19T00:21:51;17.20;99.90
25504;DHT22;13410;52.114;5.718;2023-11-19T00:24:17;17.20;99.90
25504;DHT22;13410;52.114;5.718;2023-11-19T00:26:43;17.30;99.90
25504;DHT22;13410;52.114;5.718;2023-11-19T00:29:09;17.10;99.90
25504;DHT22;13410;52.114;5.718;2023-11-19T00:31:35;17.10;99.90
25504;DHT22;13410;52.114;5.718;2023-11-19T00:34:01;17.10;99.90
25504;DHT22;13410;52.114;5.718;2023-11-19T00:36:27;17.10;99.90
25504;DHT22;13410;52.114;5.718;2023-11-19T00:38:53;17.20;99.90
25504;DHT22;13410;52.114;5.718;2023-11-19T00:41:19;17.30;99.90
25504;DHT22;13410;52.114;5.718;2023-11-19T00:43:47;17.30;99.90
25504;DHT22;13410;52.114;5.718;2023-11-19T00:46:13;17.50;99.90
25504;DHT22;13410;52.114;5.718;2023-11-19T00:48:39;17.40;99.90
25504;DHT22;13410;52.114;5.718;2023-11-19T00:51:05;17.50;99.90
25504;DHT22;13410;52.114;5.718;2023-11-19T00:53:31;17.50;99.90
25504;DHT22;13410;52.114;5.718;2023-11-19T00:55:59;17.60;99.90
25504;DHT22;13410;52.114;5.718;2023-11-19T00:58:24;17.60;99.90
25504;DHT22;13410;52.114;5.718;2023-11-19T01:00:50;17.60;99.90
25504;DHT22;13410;52.114;5.718;2023-11-19T01:03:16;17.40;99.90
25504;DHT22;13410;52.114;5.718;2023-11-19T01:05:41;17.40;99.90
25504;DHT22;13410;52.114;5.718;2023-11-19T01:08:08;17.40;99.90
25504;DHT22;13410;52.114;5.718;2023-11-19T01:10:34;17.40;99.90
25504;DHT22;13410;52.114;5.718;2023-11-19T01:12:59;17.40;99.90
25504;DHT22;13410;52.114;5.718;2023-11-19T01:15:25;17.40;99.90
25504;DHT22;13410;52.114;5.718;2023-11-19T01:17:52;17.40;99.90
25504;DHT22;13410;52.114;5.718;2023-11-19T01:20:17;17.30;99.90
25504;DHT22;13410;52.114;5.718;2023-11-19T01:22:43;17.30;99.90
25504;DHT22;13410;52.114;5.718;2023-11-19T01:25:09;17.40;99.90
25504;DHT22;13410;52.114;5.718;2023-11-19T01:27:34;17.20;99.90
25504;DHT22;13410;52.114;5.718;2023-11-19T01:30:02;17.30;99.90
25504;DHT22;13410;52.114;5.718;2023-11-19T01:32:31;17.50;99.90
25504;DHT22;13410;52.114;5.718;2023-11-19T01:34:57;17.30;99.90
25504;DHT22;13410;52.114;5.718;2023-11-19T01:37:23;17.30;99.90
25504;DHT22;13410;52.114;5.718;2023-11-19T01:39:49;17.40;99.90
25504;DHT22;13410;52.114;5.718;2023-11-19T01:42:14;17.50;99.90
25504;DHT22;13410;52.114;5.718;2023-11-19T01:44:40;17.40;99.90
25504;DHT22;13410;52.114;5.718;2023-11-19T01:47:06;17.40;99.90
25504;DHT22;13410;52.114;5.718;2023-11-19T01:49:33;17.60;99.90
25504;DHT22;13410;52.114;5.718;2023-11-19T01:51:59;17.50;99.90
25504;DHT22;13410;52.114;5.718;2023-11-19T01:54:26;17.50;99.90
25504;DHT22;13410;52.114;5.718;2023-11-19T01:56:53;17.50;99.90
25504;DHT22;13410;52.114;5.718;2023-11-19T01:59:22;17.50;99.90
25504;DHT22;13410;52.114;5.718;2023-11-19T02:01:55;17.50;99.90
25504;DHT22;13410;52.114;5.718;2023-11-19T02:04:21;17.30;99.90
25504;DHT22;13410;52.114;5.718;2023-11-19T02:06:48;17.40;99.90
25504;DHT22;13410;52.114;5.718;2023-11-19T02:09:18;17.40;99.90
25504;DHT22;13410;52.114;5.718;2023-11-19T02:11:45;17.30;99.90
25504;DHT22;13410;52.114;5.718;2023-11-19T02:14:14;17.30;99.90
25504;DHT22;13410;52.114;5.718;2023-11-19T02:16:40;17.30;99.90
25504;DHT22;13410;52.114;5.718;2023-11-19T02:19:06;17.30;99.90
25504;DHT22;13410;52.114;5.718;2023-11-19T02:21:31;17.40;99.90
25504;DHT22;13410;52.114;5.718;2023-11-19T02:23:57;17.30;99.90
25504;DHT22;13410;52.114;5.718;2023-11-19T02:26:43;17.20;99.90
25504;DHT22;13410;52.114;5.718;2023-11-19T02:29:11;17.20;99.90
25504;DHT22;13410;52.114;5.718;2023-11-19T02:31:37;17.10;99.90
25504;DHT22;13410;52.114;5.718;2023-11-19T02:34:02;17.10;99.90
25504;DHT22;13410;52.114;5.718;2023-11-19T02:36:28;17.00;99.90
25504;DHT22;13410;52.114;5.718;2023-11-19T02:38:53;16.90;99.90
25504;DHT22;13410;52.114;5.718;2023-11-19T02:41:19;16.90;99.90
25504;DHT22;13410;52.114;5.718;2023-11-19T02:43:45;16.90;99.90
25504;DHT22;13410;52.114;5.718;2023-11-19T02:46:12;16.90;99.90
25504;DHT22;13410;52.114;5.718;2023-11-19T02:48:37;16.90;99.90
25504;DHT22;13410;52.114;5.718;2023-11-19T02:51:04;16.80;99.90
25504;DHT22;13410;52.114;5.718;2023-11-19T02:53:30;16.90;99.90
25504;DHT22;13410;52.114;5.718;2023-11-19T02:55:57;16.90;99.90
25504;DHT22;13410;52.114;5.718;2023-11-19T02:58:43;17.00;99.90
25504;DHT22;13410;52.114;5.718;2023-11-19T03:01:10;16.90;99.90
25504;DHT22;13410;52.114;5.718;2023-11-19T03:03:44;16.70;99.90
25504;DHT22;13410;52.114;5.718;2023-11-19T03:06:14;16.80;99.90
25504;DHT22;13410;52.114;5.718;2023-11-19T03:08:40;16.60;99.90
25504;DHT22;13410;52.114;5.718;2023-11-19T03:11:05;16.70;99.90
25504;DHT22;13410;52.114;5.718;2023-11-19T03:13:31;16.60;99.90
25504;DHT22;13410;52.114;5.718;2023-11-19T03:15:56;16.60;99.90
25504;DHT22;13410;52.114;5.718;2023-11-19T03:18:22;16.30;99.90
25504;DHT22;13410;52.114;5.718;2023-11-19T03:20:48;16.40;99.90
25504;DHT22;13410;52.114;5.718;2023-11-19T03:23:13;16.50;99.90
25504;DHT22;13410;52.114;5.718;2023-11-19T03:25:39;16.50;99.90
25504;DHT22;13410;52.114;5.718;2023-11-19T03:28:04;16.40;99.90
25504;DHT22;13410;52.114;5.718;2023-11-19T03:30:31;16.50;99.90
25504;DHT22;13410;52.114;5.718;2023-11-19T03:32:57;16.30;99.90
25504;DHT22;13410;52.114;5.718;2023-11-19T03:35:23;16.40;99.90
25504;DHT22;13410;52.114;5.718;2023-11-19T03:37:50;16.30;99.90
25504;DHT22;13410;52.114;5.718;2023-11-19T03:40:16;16.30;99.90
25504;DHT22;13410;52.114;5.718;2023-11-19T03:42:42;16.20;99.90
25504;DHT22;13410;52.114;5.718;2023-11-19T03:45:08;16.00;99.90
25504;DHT22;13410;52.114;5.718;2023-11-19T03:47:34;15.90;99.90
25504;DHT22;13410;52.114;5.718;2023-11-19T03:50:01;15.80;99.90
25504;DHT22;13410;52.114;5.718;2023-11-19T03:52:26;15.70;99.90
25504;DHT22;13410;52.114;5.718;2023-11-19T03:54:55;15.80;99.90
25504;DHT22;13410;52.114;5.718;2023-11-19T03:57:21;15.70;99.90
25504;DHT22;13410;52.114;5.718;2023-11-19T03:59:47;15.70;99.90
25504;DHT22;13410;52.114;5.718;2023-11-19T04:02:12;15.60;99.90
25504;DHT22;13410;52.114;5.718;2023-11-19T04:04:38;15.60;99.90
25504;DHT22;13410;52.114;5.718;2023-11-19T04:07:06;15.50;99.90
25504;DHT22;13410;52.114;5.718;2023-11-19T04:09:32;15.50;99.90
25504;DHT22;13410;52.114;5.718;2023-11-19T04:12:03;15.70;99.90
25504;DHT22;13410;52.114;5.718;2023-11-19T04:14:29;15.60;99.90
25504;DHT22;13410;52.114;5.718;2023-11-19T04:16:54;15.70;99.90
25504;DHT22;13410;52.114;5.718;2023-11-19T04:19:20;15.60;99.90
25504;DHT22;13410;52.114;5.718;2023-11-19T04:21:46;15.60;99.90
25504;DHT22;13410;52.114;5.718;2023-11-19T04:24:12;15.50;99.90
25504;DHT22;13410;52.114;5.718;2023-11-19T04:26:42;15.50;99.90
25504;DHT22;13410;52.114;5.718;2023-11-19T04:29:11;15.60;99.90
25504;DHT22;13410;52.114;5.718;2023-11-19T04:31:37;15.50;99.90
25504;DHT22;13410;52.114;5.718;2023-11-19T04:34:03;15.60;99.90
25504;DHT22;13410;52.114;5.718;2023-11-19T04:36:28;15.60;99.90
25504;DHT22;13410;52.114;5.718;2023-11-19T04:38:55;15.60;99.90
25504;DHT22;13410;52.114;5.718;2023-11-19T04:41:21;15.50;99.90
25504;DHT22;13410;52.114;5.718;2023-11-19T04:43:46;15.60;99.90
25504;DHT22;13410;52.114;5.718;2023-11-19T04:46:12;15.70;99.90
25504;DHT22;13410;52.114;5.718;2023-11-19T04:48:38;15.80;99.90
25504;DHT22;13410;52.114;5.718;2023-11-19T04:51:06;15.70;99.90
25504;DHT22;13410;52.114;5.718;2023-11-19T04:53:32;15.60;99.90
25504;DHT22;13410;52.114;5.718;2023-11-19T04:55:58;15.40;99.90
25504;DHT22;13410;52.114;5.718;2023-11-19T04:58:24;15.40;99.90
25504;DHT22;13410;52.114;5.718;2023-11-19T05:00:50;15.30;99.90
25504;DHT22;13410;52.114;5.718;2023-11-19T05:03:15;15.40;99.90
25504;DHT22;13410;52.114;5.718;2023-11-19T05:05:41;15.40;99.90
25504;DHT22;13410;52.114;5.718;2023-11-19T05:08:06;15.20;99.90
25504;DHT22;13410;52.114;5.718;2023-11-19T05:10:32;15.00;99.90
25504;DHT22;13410;52.114;5.718;2023-11-19T05:12:57;15.00;99.90
25504;DHT22;13410;52.114;5.718;2023-11-19T05:15:23;15.10;99.90
25504;DHT22;13410;52.114;5.718;2023-11-19T05:17:49;14.90;99.90
25504;DHT22;13410;52.114;5.718;2023-11-19T05:20:14;15.00;99.90
25504;DHT22;13410;52.114;5.718;2023-11-19T05:22:41;15.00;99.90
25504;DHT22;13410;52.114;5.718;2023-11-19T05:25:07;14.90;99.90
25504;DHT22;13410;52.114;5.718;2023-11-19T05:27:34;14.70;99.90
25504;DHT22;13410;52.114;5.718;2023-11-19T05:30:01;15.00;99.90
25504;DHT22;13410;52.114;5.718;2023-11-19T05:32:27;15.00;99.90
25504;DHT22;13410;52.114;5.718;2023-11-19T05:34:52;15.00;99.90
25504;DHT22;13410;52.114;5.718;2023-11-19T05:37:18;15.00;99.90
25504;DHT22;13410;52.114;5.718;2023-11-19T05:39:45;15.10;99.90
25504;DHT22;13410;52.114;5.718;2023-11-19T05:42:10;15.20;99.90
25504;DHT22;13410;52.114;5.718;2023-11-19T05:44:36;15.10;99.90
25504;DHT22;13410;52.114;5.718;2023-11-19T05:47:03;15.20;99.90
25504;DHT22;13410;52.114;5.718;2023-11-19T05:49:29;15.10;99.90
25504;DHT22;13410;52.114;5.718;2023-11-19T05:51:54;15.00;99.90
25504;DHT22;13410;52.114;5.718;2023-11-19T05:54:21;15.10;99.90
25504;DHT22;13410;52.114;5.718;2023-11-19T05:56:48;15.10;99.90
25504;DHT22;13410;52.114;5.718;2023-11-19T05:59:14;15.10;99.90
25504;DHT22;13410;52.114;5.718;2023-11-19T06:01:43;15.10;99.90
25504;DHT22;13410;52.114;5.718;2023-11-19T06:04:09;15.20;99.90
25504;DHT22;13410;52.114;5.718;2023-11-19T06:06:35;15.20;99.90
25504;DHT22;13410;52.114;5.718;2023-11-19T06:09:01;15.00;99.90
25504;DHT22;13410;52.114;5.718;2023-11-19T06:11:27;15.00;99.90
25504;DHT22;13410;52.114;5.718;2023-11-19T06:13:53;14.90;99.90
25504;DHT22;13410;52.114;5.718;2023-11-19T06:16:19;14.90;99.90
25504;DHT22;13410;52.114;5.718;2023-11-19T06:18:45;14.80;99.90
25504;DHT22;13410;52.114;5.718;2023-11-19T06:21:12;14.90;99.90
25504;DHT22;13410;52.114;5.718;2023-11-19T06:23:38;14.90;99.90
25504;DHT22;13410;52.114;5.718;2023-11-19T06:26:04;15.00;99.90
25504;DHT22;13410;52.114;5.718;2023-11-19T06:28:31;14.90;99.90
25504;DHT22;13410;52.114;5.718;2023-11-19T06:30:56;15.00;99.90
25504;DHT22;13410;52.114;5.718;2023-11-19T06:33:26;15.10;99.90
25504;DHT22;13410;52.114;5.718;2023-11-19T06:35:52;14.90;99.90
25504;DHT22;13410;52.114;5.718;2023-11-19T06:38:20;14.90;99.90
25504;DHT22;13410;52.114;5.718;2023-11-19T06:40:45;15.10;99.90
25504;DHT22;13410;52.114;5.718;2023-11-19T06:43:11;15.00;99.90
25504;DHT22;13410;52.114;5.718;2023-11-19T06:45:36;15.10;99.90
25504;DHT22;13410;52.114;5.718;2023-11-19T06:48:02;15.00;99.90
25504;DHT22;13410;52.114;5.718;2023-11-19T06:50:32;15.10;99.90
25504;DHT22;13410;52.114;5.718;2023-11-19T06:52:58;15.20;99.90
25504;DHT22;13410;52.114;5.718;2023-11-19T06:55:24;15.20;99.90
25504;DHT22;13410;52.114;5.718;2023-11-19T06:57:49;15.10;99.90
25504;DHT22;13410;52.114;5.718;2023-11-19T07:00:15;14.90;99.90
25504;DHT22;13410;52.114;5.718;2023-11-19T07:02:42;14.80;99.90
25504;DHT22;13410;52.114;5.718;2023-11-19T07:05:07;15.00;99.90
25504;DHT22;13410;52.114;5.718;2023-11-19T07:07:33;14.90;99.90
25504;DHT22;13410;52.114;5.718;2023-11-19T07:09:59;14.80;99.90
25504;DHT22;13410;52.114;5.718;2023-11-19T07:12:25;14.90;99.90
25504;DHT22;13410;52.114;5.718;2023-11-19T07:14:52;14.90;99.90
25504;DHT22;13410;52.114;5.718;2023-11-19T07:17:18;15.00;99.90
25504;DHT22;13410;52.114;5.718;2023-11-19T07:19:46;14.90;99.90
25504;DHT22;13410;52.114;5.718;2023-11-19T07:22:11;15.00;99.90
25504;DHT22;13410;52.114;5.718;2023-11-19T07:24:39;15.10;99.90
25504;DHT22;13410;52.114;5.718;2023-11-19T07:27:06;15.10;99.90
25504;DHT22;13410;52.114;5.718;2023-11-19T07:29:32;15.10;99.90
25504;DHT22;13410;52.114;5.718;2023-11-19T07:31:57;15.10;99.90
25504;DHT22;13410;52.114;5.718;2023-11-19T07:34:24;15.10;99.90
25504;DHT22;13410;52.114;5.718;2023-11-19T07:36:50;15.20;99.90
25504;DHT22;13410;52.114;5.718;2023-11-19T07:39:15;15.30;99.90
25504;DHT22;13410;52.114;5.718;2023-11-19T07:41:41;15.20;99.90
25504;DHT22;13410;52.114;5.718;2023-11-19T07:44:06;15.20;99.90
25504;DHT22;13410;52.114;5.718;2023-11-19T07:46:32;15.20;99.90
25504;DHT22;13410;52.114;5.718;2023-11-19T07:48:58;15.40;99.90
25504;DHT22;13410;52.114;5.718;2023-11-19T07:51:24;15.40;99.90
25504;DHT22;13410;52.114;5.718;2023-11-19T07:53:49;15.50;99.90
25504;DHT22;13410;52.114;5.718;2023-11-19T07:56:15;15.40;99.90
25504;DHT22;13410;52.114;5.718;2023-11-19T07:58:41;15.20;99.90
25504;DHT22;13410;52.114;5.718;2023-11-19T08:01:07;15.20;99.90
25504;DHT22;13410;52.114;5.718;2023-11-19T08:03:33;15.30;99.90
25504;DHT22;13410;52.114;5.718;2023-11-19T08:06:02;15.30;99.90
25504;DHT22;13410;52.114;5.718;2023-11-19T08:08:28;15.30;99.90
25504;DHT22;13410;52.114;5.718;2023-11-19T08:10:55;15.40;99.90
25504;DHT22;13410;52.114;5.718;2023-11-19T08:13:23;15.50;99.90
25504;DHT22;13410;52.114;5.718;2023-11-19T08:15:48;15.60;99.90
25504;DHT22;13410;52.114;5.718;2023-11-19T08:18:14;15.50;99.90
25504;DHT22;13410;52.114;5.718;2023-11-19T08:20:40;15.40;99.90
25504;DHT22;13410;52.114;5.718;2023-11-19T08:23:06;15.50;99.90
25504;DHT22;13410;52.114;5.718;2023-11-19T08:25:33;15.60;99.90
25504;DHT22;13410;52.114;5.718;2023-11-19T08:28:01;15.60;99.90
25504;DHT22;13410;52.114;5.718;2023-11-19T08:30:27;15.70;99.90
25504;DHT22;13410;52.114;5.718;2023-11-19T08:32:52;15.60;99.90
25504;DHT22;13410;52.114;5.718;2023-11-19T08:35:18;15.60;99.90
25504;DHT22;13410;52.114;5.718;2023-11-19T08:37:43;15.50;99.90
25504;DHT22;13410;52.114;5.718;2023-11-19T08:40:11;15.60;99.90
25504;DHT22;13410;52.114;5.718;2023-11-19T08:42:38;15.60;99.90
25504;DHT22;13410;52.114;5.718;2023-11-19T08:45:05;15.60;99.90
25504;DHT22;13410;52.114;5.718;2023-11-19T08:47:30;15.60;99.90
25504;DHT22;13410;52.114;5.718;2023-11-19T08:49:56;15.70;99.90
25504;DHT22;13410;52.114;5.718;2023-11-19T08:52:21;15.80;99.90
25504;DHT22;13410;52.114;5.718;2023-11-19T08:54:47;15.60;99.90
25504;DHT22;13410;52.114;5.718;2023-11-19T08:57:13;15.60;99.90
25504;DHT22;13410;52.114;5.718;2023-11-19T08:59:38;15.70;99.90
25504;DHT22;13410;52.114;5.718;2023-11-19T09:02:07;15.70;99.90
25504;DHT22;13410;52.114;5.718;2023-11-19T09:04:33;15.80;99.90
25504;DHT22;13410;52.114;5.718;2023-11-19T09:06:59;16.10;99.90
25504;DHT22;13410;52.114;5.718;2023-11-19T09:09:24;16.10;99.90
25504;DHT22;13410;52.114;5.718;2023-11-19T09:11:51;16.00;99.90
25504;DHT22;13410;52.114;5.718;2023-11-19T09:14:17;16.20;99.90
25504;DHT22;13410;52.114;5.718;2023-11-19T09:16:43;16.10;99.90
25504;DHT22;13410;52.114;5.718;2023-11-19T09:19:09;16.10;99.90
25504;DHT22;13410;52.114;5.718;2023-11-19T09:21:34;16.10;99.90
25504;DHT22;13410;52.114;5.718;2023-11-19T09:24:04;16.30;99.90
25504;DHT22;13410;52.114;5.718;2023-11-19T09:26:29;16.10;99.90
25504;DHT22;13410;52.114;5.718;2023-11-19T09:28:56;16.00;99.90
25504;DHT22;13410;52.114;5.718;2023-11-19T09:31:21;16.10;99.90
25504;DHT22;13410;52.114;5.718;2023-11-19T09:33:47;16.10;99.90
25504;DHT22;13410;52.114;5.718;2023-11-19T09:36:12;16.00;99.90
25504;DHT22;13410;52.114;5.718;2023-11-19T09:38:46;16.00;99.90
25504;DHT22;13410;52.114;5.718;2023-11-19T09:41:12;16.10;99.90
25504;DHT22;13410;52.114;5.718;2023-11-19T09:43:42;16.10;99.90
25504;DHT22;13410;52.114;5.718;2023-11-19T09:46:15;16.10;99.90
25504;DHT22;13410;52.114;5.718;2023-11-19T09:48:42;16.30;99.90
25504;DHT22;13410;52.114;5.718;2023-11-19T09:51:10;16.40;99.90
25504;DHT22;13410;52.114;5.718;2023-11-19T09:53:37;16.50;99.90
25504;DHT22;13410;52.114;5.718;2023-11-19T09:56:04;16.50;99.90
25504;DHT22;13410;52.114;5.718;2023-11-19T09:58:31;16.50;99.90
25504;DHT22;13410;52.114;5.718;2023-11-19T10:00:57;16.60;99.90
25504;DHT22;13410;52.114;5.718;2023-11-19T10:03:35;16.80;99.90
25504;DHT22;13410;52.114;5.718;2023-11-19T10:06:04;16.70;99.90
25504;DHT22;13410;52.114;5.718;2023-11-19T10:08:32;16.70;99.90
25504;DHT22;13410;52.114;5.718;2023-11-19T10:10:57;16.60;99.90
25504;DHT22;13410;52.114;5.718;2023-11-19T10:13:28;16.60;99.90
25504;DHT22;13410;52.114;5.718;2023-11-19T10:15:55;16.70;99.90
25504;DHT22;13410;52.114;5.718;2023-11-19T10:18:26;16.70;99.90
25504;DHT22;13410;52.114;5.718;2023-11-19T10:20:52;16.80;99.90
25504;DHT22;13410;52.114;5.718;2023-11-19T10:23:19;16.70;99.90
25504;DHT22;13410;52.114;5.718;2023-11-19T10:25:44;16.70;99.90
25504;DHT22;13410;52.114;5.718;2023-11-19T10:28:10;16.70;99.90
25504;DHT22;13410;52.114;5.718;2023-11-19T10:30:36;16.80;99.90
25504;DHT22;13410;52.114;5.718;2023-11-19T10:35:35;16.90;99.90
25504;DHT22;13410;52.114;5.718;2023-11-19T10:38:14;16.90;99.90
25504;DHT22;13410;52.114;5.718;2023-11-19T10:40:43;16.70;99.90
25504;DHT22;13410;52.114;5.718;2023-11-19T10:43:10;16.90;99.90
25504;DHT22;13410;52.114;5.718;2023-11-19T10:45:36;16.90;99.90
25504;DHT22;13410;52.114;5.718;2023-11-19T10:48:03;16.90;99.90
25504;DHT22;13410;52.114;5.718;2023-11-19T10:53:02;17.40;99.90
25504;DHT22;13410;52.114;5.718;2023-11-19T10:55:30;17.50;99.90
25504;DHT22;13410;52.114;5.718;2023-11-19T10:58:03;17.50;99.90
25504;DHT22;13410;52.114;5.718;2023-11-19T11:00:29;17.40;99.90
25504;DHT22;13410;52.114;5.718;2023-11-19T11:03:01;17.40;99.90
25504;DHT22;13410;52.114;5.718;2023-11-19T11:05:29;17.30;99.90
25504;DHT22;13410;52.114;5.718;2023-11-19T11:07:58;17.20;99.90
25504;DHT22;13410;52.114;5.718;2023-11-19T11:10:26;17.40;99.90
25504;DHT22;13410;52.114;5.718;2023-11-19T11:12:52;17.60;99.90
25504;DHT22;13410;52.114;5.718;2023-11-19T11:15:26;17.50;99.90
25504;DHT22;13410;52.114;5.718;2023-11-19T11:17:57;17.80;99.90
25504;DHT22;13410;52.114;5.718;2023-11-19T11:20:25;18.00;99.90
25504;DHT22;13410;52.114;5.718;2023-11-19T11:28:41;17.00;99.90
25504;DHT22;13410;52.114;5.718;2023-11-19T11:33:58;17.10;99.90
25504;DHT22;13410;52.114;5.718;2023-11-19T11:36:26;17.20;99.90
25504;DHT22;13410;52.114;5.718;2023-11-19T11:38:53;17.50;99.90
25504;DHT22;13410;52.114;5.718;2023-11-19T11:41:24;17.70;99.90
25504;DHT22;13410;52.114;5.718;2023-11-19T11:43:54;17.70;99.90
25504;DHT22;13410;52.114;5.718;2023-11-19T11:49:04;17.60;99.90
25504;DHT22;13410;52.114;5.718;2023-11-19T11:57:06;17.10;99.90
25504;DHT22;13410;52.114;5.718;2023-11-19T12:02:09;17.00;99.90
25504;DHT22;13410;52.114;5.718;2023-11-19T12:04:36;17.10;99.90
25504;DHT22;13410;52.114;5.718;2023-11-19T12:07:18;17.10;99.90
25504;DHT22;13410;52.114;5.718;2023-11-19T12:09:51;17.30;99.90
25504;DHT22;13410;52.114;5.718;2023-11-19T12:20:05;17.40;99.90
25504;DHT22;13410;52.114;5.718;2023-11-19T12:22:38;17.50;99.90
25504;DHT22;13410;52.114;5.718;2023-11-19T12:25:08;17.60;99.90
25504;DHT22;13410;52.114;5.718;2023-11-19T12:27:41;17.70;99.90
25504;DHT22;13410;52.114;5.718;2023-11-19T12:30:09;17.80;99.90
25504;DHT22;13410;52.114;5.718;2023-11-19T12:32:43;17.50;99.90
25504;DHT22;13410;52.114;5.718;2023-11-19T12:35:09;17.60;99.90
25504;DHT22;13410;52.114;5.718;2023-11-19T12:37:49;17.50;99.90
25504;DHT22;13410;52.114;5.718;2023-11-19T12:42:50;17.60;99.90
25504;DHT22;13410;52.114;5.718;2023-11-19T12:45:18;17.70;99.90
25504;DHT22;13410;52.114;5.718;2023-11-19T12:47:47;17.60;99.90
25504;DHT22;13410;52.114;5.718;2023-11-19T12:50:14;17.50;99.90
25504;DHT22;13410;52.114;5.718;2023-11-19T12:52:40;17.40;99.90
25504;DHT22;13410;52.114;5.718;2023-11-19T12:55:28;17.20;99.90
25504;DHT22;13410;52.114;5.718;2023-11-19T12:57:54;17.40;99.90
25504;DHT22;13410;52.114;5.718;2023-11-19T13:00:25;17.40;99.90
25504;DHT22;13410;52.114;5.718;2023-11-19T13:02:52;17.50;99.90
25504;DHT22;13410;52.114;5.718;2023-11-19T13:05:33;17.60;99.90
25504;DHT22;13410;52.114;5.718;2023-11-19T13:08:04;17.50;99.90
25504;DHT22;13410;52.114;5.718;2023-11-19T13:10:30;17.30;99.90
25504;DHT22;13410;52.114;5.718;2023-11-19T13:13:07;17.40;99.90
25504;DHT22;13410;52.114;5.718;2023-11-19T13:15:36;17.30;99.90
25504;DHT22;13410;52.114;5.718;2023-11-19T13:18:02;17.40;99.90
25504;DHT22;13410;52.114;5.718;2023-11-19T13:20:29;17.30;99.90
25504;DHT22;13410;52.114;5.718;2023-11-19T13:23:03;17.30;99.90
25504;DHT22;13410;52.114;5.718;2023-11-19T13:25:30;17.20;99.90
25504;DHT22;13410;52.114;5.718;2023-11-19T13:27:57;17.10;99.90
25504;DHT22;13410;52.114;5.718;2023-11-19T13:30:24;17.10;99.90
25504;DHT22;13410;52.114;5.718;2023-11-19T13:32:51;16.90;99.90
25504;DHT22;13410;52.114;5.718;2023-11-19T13:35:18;17.00;99.90
25504;DHT22;13410;52.114;5.718;2023-11-19T13:37:44;17.00;99.90
25504;DHT22;13410;52.114;5.718;2023-11-19T13:40:11;17.10;99.90
25504;DHT22;13410;52.114;5.718;2023-11-19T13:42:40;17.10;99.90
25504;DHT22;13410;52.114;5.718;2023-11-19T13:45:08;17.10;99.90
25504;DHT22;13410;52.114;5.718;2023-11-19T13:47:40;17.20;99.90
25504;DHT22;13410;52.114;5.718;2023-11-19T13:50:08;17.00;99.90
25504;DHT22;13410;52.114;5.718;2023-11-19T13:52:36;16.70;99.90
25504;DHT22;13410;52.114;5.718;2023-11-19T13:55:08;16.80;99.90
25504;DHT22;13410;52.114;5.718;2023-11-19T13:57:34;16.70;99.90
25504;DHT22;13410;52.114;5.718;2023-11-19T14:00:02;16.80;99.90
25504;DHT22;13410;52.114;5.718;2023-11-19T14:02:30;16.80;99.90
25504;DHT22;13410;52.114;5.718;2023-11-19T14:04:56;16.80;99.90
25504;DHT22;13410;52.114;5.718;2023-11-19T14:07:21;16.60;99.90
25504;DHT22;13410;52.114;5.718;2023-11-19T14:09:47;16.70;99.90
25504;DHT22;13410;52.114;5.718;2023-11-19T14:12:13;16.70;99.90
25504;DHT22;13410;52.114;5.718;2023-11-19T14:14:41;16.60;99.90
25504;DHT22;13410;52.114;5.718;2023-11-19T14:17:07;16.70;99.90
25504;DHT22;13410;52.114;5.718;2023-11-19T14:19:33;16.80;99.90
25504;DHT22;13410;52.114;5.718;2023-11-19T14:21:59;16.70;99.90
25504;DHT22;13410;52.114;5.718;2023-11-19T14:24:26;16.60;99.90
25504;DHT22;13410;52.114;5.718;2023-11-19T14:26:52;16.60;99.90
25504;DHT22;13410;52.114;5.718;2023-11-19T14:29:18;16.70;99.90
25504;DHT22;13410;52.114;5.718;2023-11-19T14:31:43;16.90;99.90
25504;DHT22;13410;52.114;5.718;2023-11-19T14:34:09;16.90;99.90
25504;DHT22;13410;52.114;5.718;2023-11-19T14:36:37;17.00;99.90
25504;DHT22;13410;52.114;5.718;2023-11-19T14:39:02;17.00;99.90
25504;DHT22;13410;52.114;5.718;2023-11-19T14:41:29;16.90;99.90
25504;DHT22;13410;52.114;5.718;2023-11-19T14:43:55;16.90;99.90
25504;DHT22;13410;52.114;5.718;2023-11-19T14:46:21;16.70;99.90
25504;DHT22;13410;52.114;5.718;2023-11-19T14:48:46;16.80;99.90
25504;DHT22;13410;52.114;5.718;2023-11-19T14:51:16;16.80;99.90
25504;DHT22;13410;52.114;5.718;2023-11-19T14:53:41;16.70;99.90
25504;DHT22;13410;52.114;5.718;2023-11-19T14:56:10;16.80;99.90
25504;DHT22;13410;52.114;5.718;2023-11-19T14:58:38;16.60;99.90
25504;DHT22;13410;52.114;5.718;2023-11-19T15:01:04;16.70;99.90
25504;DHT22;13410;52.114;5.718;2023-11-19T15:03:30;16.60;99.90
25504;DHT22;13410;52.114;5.718;2023-11-19T15:05:56;16.60;99.90
25504;DHT22;13410;52.114;5.718;2023-11-19T15:08:23;16.60;99.90
25504;DHT22;13410;52.114;5.718;2023-11-19T15:10:49;16.40;99.90
25504;DHT22;13410;52.114;5.718;2023-11-19T15:13:15;16.40;99.90
25504;DHT22;13410;52.114;5.718;2023-11-19T15:15:41;16.40;99.90
25504;DHT22;13410;52.114;5.718;2023-11-19T15:18:07;16.20;99.90
25504;DHT22;13410;52.114;5.718;2023-11-19T15:20:33;16.50;99.90
25504;DHT22;13410;52.114;5.718;2023-11-19T15:22:58;16.50;99.90
25504;DHT22;13410;52.114;5.718;2023-11-19T15:25:24;16.30;99.90
25504;DHT22;13410;52.114;5.718;2023-11-19T15:27:50;16.20;99.90
25504;DHT22;13410;52.114;5.718;2023-11-19T15:30:16;16.30;99.90
25504;DHT22;13410;52.114;5.718;2023-11-19T15:32:42;16.20;99.90
25504;DHT22;13410;52.114;5.718;2023-11-19T15:35:10;16.40;99.90
25504;DHT22;13410;52.114;5.718;2023-11-19T15:37:37;16.30;99.90
25504;DHT22;13410;52.114;5.718;2023-11-19T15:40:08;16.40;99.90
25504;DHT22;13410;52.114;5.718;2023-11-19T15:42:36;16.40;99.90
25504;DHT22;13410;52.114;5.718;2023-11-19T15:45:03;16.50;99.90
25504;DHT22;13410;52.114;5.718;2023-11-19T15:47:33;16.60;99.90
25504;DHT22;13410;52.114;5.718;2023-11-19T15:50:01;16.50;99.90
25504;DHT22;13410;52.114;5.718;2023-11-19T15:52:34;16.50;99.90
25504;DHT22;13410;52.114;5.718;2023-11-19T15:55:00;16.40;99.90
25504;DHT22;13410;52.114;5.718;2023-11-19T15:57:26;16.50;99.90
25504;DHT22;13410;52.114;5.718;2023-11-19T15:59:52;16.40;99.90
25504;DHT22;13410;52.114;5.718;2023-11-19T16:02:18;16.40;99.90
25504;DHT22;13410;52.114;5.718;2023-11-19T16:04:43;16.40;99.90